createdAt,value
2022-10-14T00:01:56.331Z,16.40
2022-10-14T00:07:00.172Z,17.80
2022-10-14T00:12:04.249Z,17.55
2022-10-14T00:17:09.508Z,15.75
2022-10-14T00:22:14.003Z,17.35
2022-10-14T00:27:18.125Z,17.83
2022-10-14T00:32:24.191Z,17.55
2022-10-14T00:37:29.946Z,18.15
2022-10-14T00:42:34.070Z,24.92
2022-10-14T00:47:39.634Z,22.63
2022-10-14T00:52:47.324Z,20.15
2022-10-14T00:57:51.177Z,21.25
2022-10-14T01:02:57.387Z,19.75
2022-10-14T01:08:07.451Z,22.52
2022-10-14T01:13:20.409Z,19.60
2022-10-14T01:18:39.156Z,19.35
2022-10-14T01:24:28.345Z,24.23
2022-10-14T01:30:01.685Z,21.05
2022-10-14T01:35:11.761Z,20.00
2022-10-14T01:40:20.883Z,21.50
2022-10-14T01:45:27.108Z,23.42
2022-10-14T01:55:37.912Z,22.85
2022-10-14T02:00:43.761Z,22.80
2022-10-14T02:05:51.768Z,24.92
2022-10-14T02:11:14.571Z,23.30
2022-10-14T02:16:25.278Z,19.95
2022-10-14T02:21:33.588Z,21.73
2022-10-14T02:26:40.999Z,24.38
2022-10-14T02:31:47.212Z,24.70
2022-10-14T02:41:55.022Z,23.65
2022-10-14T02:47:00.241Z,21.92
2022-10-14T02:52:06.788Z,22.85
2022-10-14T02:57:10.688Z,21.77
2022-10-14T03:02:16.073Z,20.85
2022-10-14T03:07:20.180Z,22.33
2022-10-14T03:12:27.948Z,19.58
2022-10-14T03:17:35.309Z,23.63
2022-10-14T03:22:42.452Z,18.40
2022-10-14T03:27:46.587Z,18.13
2022-10-14T03:32:52.782Z,26.38
2022-10-14T03:38:15.037Z,19.20
2022-10-14T03:43:19.650Z,18.48
2022-10-14T03:48:31.719Z,23.83
2022-10-14T03:53:35.535Z,16.40
2022-10-14T03:58:39.562Z,21.33
2022-10-14T04:03:51.107Z,24.20
2022-10-14T04:08:55.309Z,24.55
2022-10-14T04:14:06.384Z,23.92
2022-10-14T04:19:17.761Z,20.63
2022-10-14T04:24:21.899Z,16.93
2022-10-14T04:29:33.045Z,21.60
2022-10-14T04:34:47.640Z,23.70
2022-10-14T04:39:55.735Z,22.67
2022-10-14T04:44:59.980Z,17.63
2022-10-14T04:50:19.035Z,22.00
2022-10-14T04:55:42.740Z,13.30
2022-10-14T05:00:47.763Z,19.17
2022-10-14T05:06:05.324Z,20.00
2022-10-14T05:11:10.984Z,21.27
2022-10-14T05:16:24.327Z,25.05
2022-10-14T05:21:31.662Z,31.58
2022-10-14T05:26:45.890Z,31.77
2022-10-14T05:31:51.239Z,29.10
2022-10-14T05:37:16.878Z,32.25
2022-10-14T05:42:25.218Z,33.80
2022-10-14T05:47:31.767Z,35.03
2022-10-14T05:52:44.096Z,26.67
2022-10-14T05:57:57.111Z,26.00
2022-10-14T06:03:05.664Z,28.80
2022-10-14T06:08:11.523Z,26.02
2022-10-14T06:13:16.051Z,27.58
2022-10-14T06:18:23.437Z,27.65
2022-10-14T06:23:29.683Z,26.38
2022-10-14T06:28:33.781Z,19.13
2022-10-14T06:33:37.683Z,31.23
2022-10-14T06:38:42.929Z,26.15
2022-10-14T06:43:46.691Z,23.60
2022-10-14T06:48:50.668Z,18.38
2022-10-14T06:53:55.860Z,15.90
2022-10-14T06:58:59.656Z,14.73
2022-10-14T07:04:03.444Z,14.20
2022-10-14T07:09:08.663Z,10.63
2022-10-14T07:14:12.484Z,46.37
2022-10-14T07:19:16.275Z,20.60
2022-10-14T07:24:21.575Z,12.38
2022-10-14T07:29:25.377Z,14.90
2022-10-14T07:34:29.132Z,15.50
2022-10-14T07:39:34.267Z,18.13
2022-10-14T07:44:39.925Z,13.53
2022-10-14T07:49:43.754Z,13.95
2022-10-14T07:54:48.935Z,15.20
2022-10-14T07:59:53.520Z,17.20
2022-10-14T08:05:13.178Z,11.18
2022-10-14T08:10:22.597Z,15.82
2022-10-14T08:15:28.662Z,20.30
2022-10-14T08:25:38.054Z,16.70
2022-10-14T08:30:42.019Z,14.35
2022-10-14T08:35:49.120Z,15.77
2022-10-14T08:41:08.218Z,16.17
2022-10-14T08:46:17.425Z,18.90
2022-10-14T08:51:22.409Z,19.23
2022-10-14T08:56:27.735Z,14.93
2022-10-14T09:01:34.496Z,14.82
2022-10-14T09:06:41.255Z,15.40
2022-10-14T09:11:49.871Z,13.80
2022-10-14T09:16:57.794Z,14.00
2022-10-14T09:22:02.603Z,15.70
2022-10-14T09:27:11.741Z,13.00
2022-10-14T09:32:18.652Z,12.80
2022-10-14T09:37:26.831Z,17.70
2022-10-14T09:42:47.002Z,13.20
2022-10-14T09:47:53.422Z,18.73
2022-10-14T09:53:01.596Z,20.75
2022-10-14T09:58:15.285Z,14.90
2022-10-14T10:03:26.693Z,14.93
2022-10-14T10:08:30.665Z,14.55
2022-10-14T10:13:40.575Z,18.85
2022-10-14T10:18:44.519Z,13.68
2022-10-14T10:23:54.366Z,13.57
2022-10-14T10:29:00.495Z,12.98
2022-10-14T10:34:14.249Z,12.15
2022-10-14T10:39:25.063Z,13.32
2022-10-14T10:44:41.241Z,19.52
2022-10-14T10:50:20.804Z,14.38
2022-10-14T10:55:31.654Z,16.15
2022-10-14T11:00:44.327Z,17.85
2022-10-14T11:05:53.701Z,14.95
2022-10-14T11:11:18.656Z,11.43
2022-10-14T11:16:28.704Z,13.02
2022-10-14T11:21:40.564Z,15.80
2022-10-14T11:27:04.178Z,17.88
2022-10-14T11:32:12.283Z,15.10
2022-10-14T11:37:24.676Z,16.58
2022-10-14T11:42:43.291Z,15.70
2022-10-14T11:47:50.016Z,19.75
2022-10-14T11:52:57.464Z,14.40
2022-10-14T11:58:04.546Z,18.23
2022-10-14T12:03:14.550Z,14.20
2022-10-14T12:08:26.990Z,15.30
2022-10-14T12:13:36.320Z,11.90
2022-10-14T12:18:43.296Z,14.88
2022-10-14T12:23:49.920Z,13.77
2022-10-14T12:28:54.938Z,18.17
2022-10-14T12:34:27.560Z,13.90
2022-10-14T12:39:36.209Z,14.30
2022-10-14T12:44:46.097Z,23.05
2022-10-14T12:49:53.612Z,18.73
2022-10-14T12:54:57.902Z,13.07
2022-10-14T13:00:04.369Z,18.55
2022-10-14T13:05:11.803Z,16.77
2022-10-14T13:10:47.239Z,18.73
2022-10-14T13:15:52.005Z,21.17
2022-10-14T13:20:57.249Z,17.25
2022-10-14T13:26:11.280Z,19.55
2022-10-14T13:31:20.089Z,16.58
2022-10-14T13:36:30.930Z,23.15
2022-10-14T13:41:34.890Z,13.23
2022-10-14T13:46:41.889Z,18.02
2022-10-14T13:51:49.923Z,17.60
2022-10-14T13:57:20.182Z,16.02
2022-10-14T14:02:27.431Z,17.17
2022-10-14T14:08:08.404Z,22.10
2022-10-14T14:13:03.531Z,17.83
2022-10-14T14:18:07.374Z,16.85
2022-10-14T14:23:14.205Z,26.00
2022-10-14T14:28:19.613Z,20.25
2022-10-14T14:33:30.098Z,20.35
2022-10-14T14:38:37.112Z,15.95
2022-10-14T14:43:47.310Z,19.52
2022-10-14T14:48:57.647Z,16.98
2022-10-14T14:54:03.206Z,20.52
2022-10-14T14:59:09.595Z,26.02
2022-10-14T15:04:18.750Z,19.90
2022-10-14T15:09:26.591Z,15.75
2022-10-14T15:14:34.204Z,20.70
2022-10-14T15:19:39.031Z,23.52
2022-10-14T15:25:01.817Z,15.00
2022-10-14T15:30:23.964Z,12.50
2022-10-14T15:35:28.713Z,24.65
2022-10-14T15:40:34.438Z,13.05
2022-10-14T15:45:38.731Z,15.13
2022-10-14T15:50:45.671Z,17.58
2022-10-14T15:55:53.754Z,16.48
2022-10-14T16:00:57.584Z,18.13
2022-10-14T16:11:19.384Z,17.80
2022-10-14T16:16:27.112Z,16.75
2022-10-14T16:21:31.022Z,21.80
2022-10-14T16:26:37.145Z,17.85
2022-10-14T16:31:40.935Z,23.98
2022-10-14T16:36:44.851Z,22.42
2022-10-14T16:41:50.447Z,15.20
2022-10-14T16:47:12.010Z,15.82
2022-10-14T16:52:16.508Z,17.98
2022-10-14T16:57:21.774Z,14.63
2022-10-14T17:02:31.928Z,19.37
2022-10-14T17:07:35.803Z,22.70
2022-10-14T17:12:42.365Z,21.48
2022-10-14T17:17:46.143Z,24.55
2022-10-14T17:22:50.304Z,24.25
2022-10-14T17:27:55.657Z,34.67
2022-10-14T17:32:59.483Z,34.00
2022-10-14T17:38:03.268Z,32.72
2022-10-14T17:43:08.502Z,30.85
2022-10-14T17:48:12.337Z,26.33
2022-10-14T17:53:16.125Z,19.88
2022-10-14T17:58:21.842Z,27.92
2022-10-14T18:03:25.772Z,25.23
2022-10-14T18:08:30.175Z,25.27
2022-10-14T18:13:35.703Z,19.35
2022-10-14T18:18:40.170Z,13.63
2022-10-14T18:23:44.188Z,20.30
2022-10-14T18:28:51.305Z,21.65
2022-10-14T18:33:56.081Z,20.10
2022-10-14T18:39:00.850Z,16.92
2022-10-14T18:44:06.394Z,21.33
2022-10-14T18:49:12.660Z,13.98
2022-10-14T18:59:24.476Z,11.13
2022-10-14T19:04:28.281Z,6.93
2022-10-14T19:09:33.458Z,5.68
2022-10-14T19:14:38.627Z,8.18
2022-10-14T19:19:42.572Z,12.73
2022-10-14T19:24:46.743Z,9.98
2022-10-14T19:29:51.906Z,7.40
2022-10-14T19:34:55.695Z,7.78
2022-10-14T19:39:59.462Z,6.03
2022-10-14T19:45:04.807Z,11.13
2022-10-14T19:50:09.751Z,9.23
2022-10-14T19:55:13.624Z,11.15
2022-10-14T20:00:19.705Z,6.82
2022-10-14T20:05:23.484Z,7.28
2022-10-14T20:10:27.289Z,5.40
2022-10-14T20:15:32.483Z,6.38
2022-10-14T20:20:36.279Z,9.05
2022-10-14T20:25:41.482Z,8.07
2022-10-14T20:30:47.552Z,6.50
2022-10-14T20:36:00.213Z,10.73
2022-10-14T20:41:05.477Z,6.32
2022-10-14T20:46:11.338Z,6.10
2022-10-14T20:51:17.694Z,7.82
2022-10-14T20:56:21.466Z,8.73
2022-10-14T21:01:27.381Z,8.73
2022-10-14T21:06:31.934Z,6.15
2022-10-14T21:11:35.742Z,5.00
2022-10-14T21:16:42.341Z,6.63
2022-10-14T21:21:46.557Z,6.45
2022-10-14T21:26:51.062Z,5.88
2022-10-14T21:31:56.237Z,6.97
2022-10-14T21:37:00.112Z,8.65
2022-10-14T21:42:04.033Z,7.85
2022-10-14T21:47:09.460Z,6.53
2022-10-14T21:52:13.258Z,9.27
2022-10-14T21:57:17.626Z,7.32
2022-10-14T22:02:23.803Z,6.63
2022-10-14T22:12:31.078Z,4.18
2022-10-14T22:17:36.280Z,5.28
2022-10-14T22:22:40.287Z,5.82
2022-10-14T22:27:44.090Z,7.32
2022-10-14T22:32:49.347Z,5.65
2022-10-14T22:37:53.135Z,5.53
2022-10-14T22:42:56.919Z,6.07
2022-10-14T22:48:02.095Z,7.32
2022-10-14T22:53:05.892Z,8.52
2022-10-14T22:58:09.697Z,8.20
2022-10-14T23:03:14.968Z,10.27
2022-10-14T23:08:18.772Z,6.03
2022-10-14T23:13:22.607Z,8.93
2022-10-14T23:18:29.485Z,9.85
2022-10-14T23:23:33.347Z,8.70
2022-10-14T23:28:37.403Z,8.43
2022-10-14T23:33:43.010Z,9.25
2022-10-14T23:38:47.545Z,5.88
2022-10-14T23:43:52.017Z,8.60
2022-10-14T23:49:13.903Z,9.88
2022-10-14T23:54:21.075Z,7.88
2022-10-14T23:59:24.861Z,14.88
